sensor_id;sensor_type;location;lat;lon;timestamp;P1;durP1;ratioP1;P2;durP2;ratioP2
64957;SDS011;51486;50.232;19.208;2022-10-13T00:00:49;42.70;;;17.03;;
64957;SDS011;51486;50.232;19.208;2022-10-13T00:03:15;37.67;;;15.37;;
64957;SDS011;51486;50.232;19.208;2022-10-13T00:05:45;34.03;;;14.83;;
64957;SDS011;51486;50.232;19.208;2022-10-13T00:08:12;35.67;;;15.57;;
64957;SDS011;51486;50.232;19.208;2022-10-13T00:10:38;45.70;;;16.80;;
64957;SDS011;51486;50.232;19.208;2022-10-13T00:13:04;41.83;;;15.50;;
64957;SDS011;51486;50.232;19.208;2022-10-13T00:15:30;37.63;;;17.37;;
64957;SDS011;51486;50.232;19.208;2022-10-13T00:17:55;40.47;;;15.80;;
64957;SDS011;51486;50.232;19.208;2022-10-13T00:20:20;48.33;;;15.47;;
64957;SDS011;51486;50.232;19.208;2022-10-13T00:22:46;46.20;;;15.57;;
64957;SDS011;51486;50.232;19.208;2022-10-13T00:25:11;33.27;;;13.23;;
64957;SDS011;51486;50.232;19.208;2022-10-13T00:27:37;34.33;;;14.90;;
64957;SDS011;51486;50.232;19.208;2022-10-13T00:30:03;39.00;;;14.33;;
64957;SDS011;51486;50.232;19.208;2022-10-13T00:32:28;32.40;;;14.63;;
64957;SDS011;51486;50.232;19.208;2022-10-13T00:34:54;40.70;;;16.20;;
64957;SDS011;51486;50.232;19.208;2022-10-13T00:37:20;43.50;;;17.03;;
64957;SDS011;51486;50.232;19.208;2022-10-13T00:39:45;33.73;;;13.43;;
64957;SDS011;51486;50.232;19.208;2022-10-13T00:42:11;34.77;;;14.73;;
64957;SDS011;51486;50.232;19.208;2022-10-13T00:47:21;30.93;;;15.00;;
64957;SDS011;51486;50.232;19.208;2022-10-13T00:49:47;64.20;;;20.07;;
64957;SDS011;51486;50.232;19.208;2022-10-13T00:52:13;114.87;;;32.20;;
64957;SDS011;51486;50.232;19.208;2022-10-13T00:54:39;109.00;;;25.97;;
64957;SDS011;51486;50.232;19.208;2022-10-13T00:57:04;93.00;;;25.53;;
64957;SDS011;51486;50.232;19.208;2022-10-13T00:59:31;73.67;;;24.33;;
64957;SDS011;51486;50.232;19.208;2022-10-13T01:01:59;101.33;;;27.37;;
64957;SDS011;51486;50.232;19.208;2022-10-13T01:04:26;93.17;;;29.50;;
64957;SDS011;51486;50.232;19.208;2022-10-13T01:06:53;85.13;;;28.60;;
64957;SDS011;51486;50.232;19.208;2022-10-13T01:09:20;74.17;;;23.67;;
64957;SDS011;51486;50.232;19.208;2022-10-13T01:14:45;70.27;;;22.70;;
64957;SDS011;51486;50.232;19.208;2022-10-13T01:27:37;136.57;;;34.63;;
64957;SDS011;51486;50.232;19.208;2022-10-13T01:30:11;96.23;;;27.80;;
64957;SDS011;51486;50.232;19.208;2022-10-13T01:40:48;48.30;;;19.27;;
64957;SDS011;51486;50.232;19.208;2022-10-13T01:43:21;44.93;;;18.47;;
64957;SDS011;51486;50.232;19.208;2022-10-13T01:45:54;47.27;;;16.33;;
64957;SDS011;51486;50.232;19.208;2022-10-13T01:48:23;35.37;;;16.37;;
64957;SDS011;51486;50.232;19.208;2022-10-13T01:50:50;43.20;;;16.03;;
64957;SDS011;51486;50.232;19.208;2022-10-13T01:53:16;35.00;;;14.90;;
64957;SDS011;51486;50.232;19.208;2022-10-13T01:55:56;33.73;;;14.47;;
64957;SDS011;51486;50.232;19.208;2022-10-13T01:58:22;43.77;;;16.40;;
64957;SDS011;51486;50.232;19.208;2022-10-13T02:00:55;30.73;;;13.57;;
64957;SDS011;51486;50.232;19.208;2022-10-13T02:03:25;35.40;;;14.57;;
64957;SDS011;51486;50.232;19.208;2022-10-13T02:06:14;43.20;;;16.10;;
64957;SDS011;51486;50.232;19.208;2022-10-13T02:08:55;33.23;;;12.80;;
64957;SDS011;51486;50.232;19.208;2022-10-13T02:11:23;34.77;;;13.40;;
64957;SDS011;51486;50.232;19.208;2022-10-13T02:16:15;30.50;;;13.53;;
64957;SDS011;51486;50.232;19.208;2022-10-13T02:18:41;27.97;;;13.13;;
64957;SDS011;51486;50.232;19.208;2022-10-13T02:21:07;37.23;;;14.43;;
64957;SDS011;51486;50.232;19.208;2022-10-13T02:23:33;40.83;;;15.93;;
64957;SDS011;51486;50.232;19.208;2022-10-13T02:25:59;44.13;;;16.90;;
64957;SDS011;51486;50.232;19.208;2022-10-13T02:28:24;34.63;;;14.13;;
64957;SDS011;51486;50.232;19.208;2022-10-13T02:30:51;37.57;;;15.03;;
64957;SDS011;51486;50.232;19.208;2022-10-13T02:33:16;39.13;;;15.27;;
64957;SDS011;51486;50.232;19.208;2022-10-13T02:35:42;36.47;;;14.83;;
64957;SDS011;51486;50.232;19.208;2022-10-13T02:38:08;37.90;;;15.37;;
64957;SDS011;51486;50.232;19.208;2022-10-13T02:40:35;37.33;;;14.33;;
64957;SDS011;51486;50.232;19.208;2022-10-13T02:43:00;31.57;;;12.97;;
64957;SDS011;51486;50.232;19.208;2022-10-13T02:45:26;28.87;;;12.90;;
64957;SDS011;51486;50.232;19.208;2022-10-13T02:47:52;29.80;;;12.87;;
64957;SDS011;51486;50.232;19.208;2022-10-13T02:50:17;28.70;;;13.30;;
64957;SDS011;51486;50.232;19.208;2022-10-13T02:52:43;27.77;;;14.13;;
64957;SDS011;51486;50.232;19.208;2022-10-13T02:55:08;26.83;;;13.97;;
64957;SDS011;51486;50.232;19.208;2022-10-13T02:57:34;28.37;;;12.07;;
64957;SDS011;51486;50.232;19.208;2022-10-13T02:59:59;31.30;;;12.77;;
64957;SDS011;51486;50.232;19.208;2022-10-13T03:02:25;34.73;;;14.00;;
64957;SDS011;51486;50.232;19.208;2022-10-13T03:04:52;26.63;;;12.80;;
64957;SDS011;51486;50.232;19.208;2022-10-13T03:07:17;29.87;;;12.17;;
64957;SDS011;51486;50.232;19.208;2022-10-13T03:09:43;31.87;;;12.90;;
64957;SDS011;51486;50.232;19.208;2022-10-13T03:12:09;36.23;;;13.77;;
64957;SDS011;51486;50.232;19.208;2022-10-13T03:14:35;29.07;;;12.10;;
64957;SDS011;51486;50.232;19.208;2022-10-13T03:17:00;27.47;;;11.40;;
64957;SDS011;51486;50.232;19.208;2022-10-13T03:19:26;26.53;;;11.97;;
64957;SDS011;51486;50.232;19.208;2022-10-13T03:21:51;28.07;;;12.60;;
64957;SDS011;51486;50.232;19.208;2022-10-13T03:24:16;46.33;;;16.77;;
64957;SDS011;51486;50.232;19.208;2022-10-13T03:26:42;34.10;;;15.23;;
64957;SDS011;51486;50.232;19.208;2022-10-13T03:29:10;39.00;;;15.13;;
64957;SDS011;51486;50.232;19.208;2022-10-13T03:31:37;55.83;;;19.13;;
64957;SDS011;51486;50.232;19.208;2022-10-13T03:34:02;38.00;;;16.80;;
64957;SDS011;51486;50.232;19.208;2022-10-13T03:36:28;44.87;;;17.30;;
64957;SDS011;51486;50.232;19.208;2022-10-13T03:38:53;42.73;;;16.53;;
64957;SDS011;51486;50.232;19.208;2022-10-13T03:41:18;37.07;;;17.23;;
64957;SDS011;51486;50.232;19.208;2022-10-13T03:43:44;40.60;;;17.80;;
64957;SDS011;51486;50.232;19.208;2022-10-13T03:46:10;45.20;;;18.10;;
64957;SDS011;51486;50.232;19.208;2022-10-13T03:48:36;55.33;;;20.23;;
64957;SDS011;51486;50.232;19.208;2022-10-13T03:51:07;38.87;;;18.00;;
64957;SDS011;51486;50.232;19.208;2022-10-13T03:53:34;35.57;;;15.57;;
64957;SDS011;51486;50.232;19.208;2022-10-13T03:55:59;30.97;;;13.47;;
64957;SDS011;51486;50.232;19.208;2022-10-13T03:58:26;28.07;;;11.97;;
64957;SDS011;51486;50.232;19.208;2022-10-13T04:00:55;32.17;;;11.50;;
64957;SDS011;51486;50.232;19.208;2022-10-13T04:03:22;29.97;;;12.47;;
64957;SDS011;51486;50.232;19.208;2022-10-13T04:05:48;25.90;;;10.87;;
64957;SDS011;51486;50.232;19.208;2022-10-13T04:08:15;26.50;;;12.00;;
64957;SDS011;51486;50.232;19.208;2022-10-13T04:10:40;30.90;;;12.10;;
64957;SDS011;51486;50.232;19.208;2022-10-13T04:13:06;35.03;;;12.53;;
64957;SDS011;51486;50.232;19.208;2022-10-13T04:15:36;26.37;;;12.03;;
64957;SDS011;51486;50.232;19.208;2022-10-13T04:18:01;31.13;;;13.00;;
64957;SDS011;51486;50.232;19.208;2022-10-13T04:20:27;31.60;;;12.37;;
64957;SDS011;51486;50.232;19.208;2022-10-13T04:22:52;32.40;;;11.07;;
64957;SDS011;51486;50.232;19.208;2022-10-13T04:25:18;27.07;;;11.73;;
64957;SDS011;51486;50.232;19.208;2022-10-13T04:27:43;24.30;;;10.30;;
64957;SDS011;51486;50.232;19.208;2022-10-13T04:30:09;23.53;;;9.77;;
64957;SDS011;51486;50.232;19.208;2022-10-13T04:32:35;25.83;;;10.67;;
64957;SDS011;51486;50.232;19.208;2022-10-13T04:35:03;23.20;;;9.97;;
64957;SDS011;51486;50.232;19.208;2022-10-13T04:37:28;24.83;;;10.17;;
64957;SDS011;51486;50.232;19.208;2022-10-13T04:39:54;30.87;;;10.57;;
64957;SDS011;51486;50.232;19.208;2022-10-13T04:42:20;25.23;;;9.87;;
64957;SDS011;51486;50.232;19.208;2022-10-13T04:44:45;28.07;;;10.23;;
64957;SDS011;51486;50.232;19.208;2022-10-13T04:47:11;22.70;;;10.93;;
64957;SDS011;51486;50.232;19.208;2022-10-13T04:49:36;28.10;;;10.83;;
64957;SDS011;51486;50.232;19.208;2022-10-13T04:52:02;24.00;;;10.47;;
64957;SDS011;51486;50.232;19.208;2022-10-13T04:54:28;23.73;;;10.57;;
64957;SDS011;51486;50.232;19.208;2022-10-13T04:56:53;20.17;;;10.10;;
64957;SDS011;51486;50.232;19.208;2022-10-13T04:59:18;22.53;;;10.43;;
64957;SDS011;51486;50.232;19.208;2022-10-13T05:01:46;26.97;;;10.43;;
64957;SDS011;51486;50.232;19.208;2022-10-13T05:04:12;31.97;;;12.17;;
64957;SDS011;51486;50.232;19.208;2022-10-13T05:06:39;17.37;;;9.50;;
64957;SDS011;51486;50.232;19.208;2022-10-13T05:09:04;26.17;;;11.17;;
64957;SDS011;51486;50.232;19.208;2022-10-13T05:11:30;22.80;;;10.17;;
64957;SDS011;51486;50.232;19.208;2022-10-13T05:13:56;23.63;;;10.07;;
64957;SDS011;51486;50.232;19.208;2022-10-13T05:16:22;30.20;;;10.80;;
64957;SDS011;51486;50.232;19.208;2022-10-13T05:18:48;24.47;;;11.47;;
64957;SDS011;51486;50.232;19.208;2022-10-13T05:21:15;28.57;;;10.60;;
64957;SDS011;51486;50.232;19.208;2022-10-13T05:23:41;18.40;;;9.17;;
64957;SDS011;51486;50.232;19.208;2022-10-13T05:26:08;21.97;;;11.57;;
64957;SDS011;51486;50.232;19.208;2022-10-13T05:28:35;24.63;;;12.50;;
64957;SDS011;51486;50.232;19.208;2022-10-13T05:31:34;36.27;;;13.70;;
64957;SDS011;51486;50.232;19.208;2022-10-13T05:33:52;41.07;;;14.93;;
64957;SDS011;51486;50.232;19.208;2022-10-13T05:36:19;50.87;;;16.00;;
64957;SDS011;51486;50.232;19.208;2022-10-13T05:38:48;58.70;;;18.93;;
64957;SDS011;51486;50.232;19.208;2022-10-13T05:41:13;59.13;;;20.00;;
64957;SDS011;51486;50.232;19.208;2022-10-13T05:43:40;56.20;;;21.90;;
64957;SDS011;51486;50.232;19.208;2022-10-13T05:46:05;55.03;;;19.37;;
64957;SDS011;51486;50.232;19.208;2022-10-13T05:48:31;47.50;;;16.27;;
64957;SDS011;51486;50.232;19.208;2022-10-13T05:50:58;38.00;;;14.17;;
64957;SDS011;51486;50.232;19.208;2022-10-13T05:53:24;36.13;;;13.33;;
64957;SDS011;51486;50.232;19.208;2022-10-13T05:55:52;32.80;;;12.67;;
64957;SDS011;51486;50.232;19.208;2022-10-13T05:58:19;30.53;;;12.47;;
64957;SDS011;51486;50.232;19.208;2022-10-13T06:00:45;27.57;;;12.60;;
64957;SDS011;51486;50.232;19.208;2022-10-13T06:03:18;23.40;;;11.07;;
64957;SDS011;51486;50.232;19.208;2022-10-13T06:05:45;20.53;;;10.60;;
64957;SDS011;51486;50.232;19.208;2022-10-13T06:08:12;24.70;;;10.60;;
64957;SDS011;51486;50.232;19.208;2022-10-13T06:10:38;21.30;;;11.10;;
64957;SDS011;51486;50.232;19.208;2022-10-13T06:13:04;31.43;;;10.67;;
64957;SDS011;51486;50.232;19.208;2022-10-13T06:15:29;30.23;;;9.20;;
64957;SDS011;51486;50.232;19.208;2022-10-13T06:17:57;21.73;;;9.33;;
64957;SDS011;51486;50.232;19.208;2022-10-13T06:20:22;19.27;;;10.83;;
64957;SDS011;51486;50.232;19.208;2022-10-13T06:22:47;33.57;;;11.57;;
64957;SDS011;51486;50.232;19.208;2022-10-13T06:25:14;22.73;;;10.50;;
64957;SDS011;51486;50.232;19.208;2022-10-13T06:27:40;21.53;;;9.57;;
64957;SDS011;51486;50.232;19.208;2022-10-13T06:30:07;28.97;;;11.17;;
64957;SDS011;51486;50.232;19.208;2022-10-13T06:32:33;25.20;;;11.17;;
64957;SDS011;51486;50.232;19.208;2022-10-13T06:34:58;27.70;;;11.83;;
64957;SDS011;51486;50.232;19.208;2022-10-13T06:37:24;20.87;;;11.10;;
64957;SDS011;51486;50.232;19.208;2022-10-13T06:39:50;27.40;;;10.20;;
64957;SDS011;51486;50.232;19.208;2022-10-13T06:42:16;23.47;;;11.20;;
64957;SDS011;51486;50.232;19.208;2022-10-13T06:44:42;28.73;;;10.37;;
64957;SDS011;51486;50.232;19.208;2022-10-13T06:47:07;28.90;;;11.93;;
64957;SDS011;51486;50.232;19.208;2022-10-13T06:49:33;20.00;;;10.03;;
64957;SDS011;51486;50.232;19.208;2022-10-13T06:51:58;30.07;;;10.37;;
64957;SDS011;51486;50.232;19.208;2022-10-13T06:54:23;43.33;;;14.57;;
64957;SDS011;51486;50.232;19.208;2022-10-13T06:56:49;31.60;;;15.43;;
64957;SDS011;51486;50.232;19.208;2022-10-13T06:59:15;41.93;;;18.27;;
64957;SDS011;51486;50.232;19.208;2022-10-13T07:01:40;49.80;;;19.00;;
64957;SDS011;51486;50.232;19.208;2022-10-13T07:04:06;56.90;;;19.33;;
64957;SDS011;51486;50.232;19.208;2022-10-13T07:06:32;44.47;;;17.90;;
64957;SDS011;51486;50.232;19.208;2022-10-13T07:08:58;42.20;;;17.17;;
64957;SDS011;51486;50.232;19.208;2022-10-13T07:11:23;37.67;;;16.33;;
64957;SDS011;51486;50.232;19.208;2022-10-13T07:13:48;30.90;;;14.83;;
64957;SDS011;51486;50.232;19.208;2022-10-13T07:16:14;44.17;;;17.30;;
64957;SDS011;51486;50.232;19.208;2022-10-13T07:18:39;44.07;;;17.07;;
64957;SDS011;51486;50.232;19.208;2022-10-13T07:21:05;36.50;;;15.73;;
64957;SDS011;51486;50.232;19.208;2022-10-13T07:23:31;31.87;;;13.67;;
64957;SDS011;51486;50.232;19.208;2022-10-13T07:25:56;29.30;;;13.33;;
64957;SDS011;51486;50.232;19.208;2022-10-13T07:28:23;42.67;;;15.97;;
64957;SDS011;51486;50.232;19.208;2022-10-13T07:30:48;44.73;;;15.77;;
64957;SDS011;51486;50.232;19.208;2022-10-13T07:33:13;31.70;;;12.33;;
64957;SDS011;51486;50.232;19.208;2022-10-13T07:35:39;31.70;;;13.50;;
64957;SDS011;51486;50.232;19.208;2022-10-13T07:38:05;32.53;;;11.10;;
64957;SDS011;51486;50.232;19.208;2022-10-13T07:40:31;20.50;;;10.47;;
64957;SDS011;51486;50.232;19.208;2022-10-13T07:42:56;29.93;;;8.33;;
64957;SDS011;51486;50.232;19.208;2022-10-13T07:45:22;17.03;;;8.50;;
64957;SDS011;51486;50.232;19.208;2022-10-13T07:47:47;17.50;;;8.63;;
64957;SDS011;51486;50.232;19.208;2022-10-13T07:50:12;18.00;;;8.20;;
64957;SDS011;51486;50.232;19.208;2022-10-13T07:52:38;12.73;;;7.40;;
64957;SDS011;51486;50.232;19.208;2022-10-13T07:55:03;21.70;;;9.10;;
64957;SDS011;51486;50.232;19.208;2022-10-13T07:57:29;16.97;;;7.60;;
64957;SDS011;51486;50.232;19.208;2022-10-13T07:59:55;15.00;;;8.33;;
64957;SDS011;51486;50.232;19.208;2022-10-13T08:02:20;15.53;;;7.67;;
64957;SDS011;51486;50.232;19.208;2022-10-13T08:04:46;20.20;;;6.53;;
64957;SDS011;51486;50.232;19.208;2022-10-13T08:07:11;16.23;;;8.00;;
64957;SDS011;51486;50.232;19.208;2022-10-13T08:09:37;17.00;;;8.70;;
64957;SDS011;51486;50.232;19.208;2022-10-13T08:12:02;21.77;;;9.23;;
64957;SDS011;51486;50.232;19.208;2022-10-13T08:14:29;18.27;;;9.70;;
64957;SDS011;51486;50.232;19.208;2022-10-13T08:16:55;17.93;;;8.00;;
64957;SDS011;51486;50.232;19.208;2022-10-13T08:19:21;12.47;;;8.13;;
64957;SDS011;51486;50.232;19.208;2022-10-13T08:21:47;18.63;;;7.97;;
64957;SDS011;51486;50.232;19.208;2022-10-13T08:24:14;19.03;;;8.70;;
64957;SDS011;51486;50.232;19.208;2022-10-13T08:26:41;21.87;;;8.07;;
64957;SDS011;51486;50.232;19.208;2022-10-13T08:29:06;18.33;;;8.77;;
64957;SDS011;51486;50.232;19.208;2022-10-13T08:31:33;17.13;;;8.03;;
64957;SDS011;51486;50.232;19.208;2022-10-13T08:33:58;14.50;;;7.00;;
64957;SDS011;51486;50.232;19.208;2022-10-13T08:36:23;21.53;;;7.70;;
64957;SDS011;51486;50.232;19.208;2022-10-13T08:38:49;22.10;;;8.53;;
64957;SDS011;51486;50.232;19.208;2022-10-13T08:43:40;27.80;;;9.70;;
64957;SDS011;51486;50.232;19.208;2022-10-13T08:46:07;17.33;;;7.40;;
64957;SDS011;51486;50.232;19.208;2022-10-13T08:48:33;17.63;;;7.93;;
64957;SDS011;51486;50.232;19.208;2022-10-13T08:51:04;18.43;;;8.30;;
64957;SDS011;51486;50.232;19.208;2022-10-13T08:53:34;12.77;;;6.40;;
64957;SDS011;51486;50.232;19.208;2022-10-13T08:56:17;13.67;;;6.93;;
64957;SDS011;51486;50.232;19.208;2022-10-13T08:58:44;16.73;;;7.87;;
64957;SDS011;51486;50.232;19.208;2022-10-13T09:08:50;15.80;;;7.03;;
64957;SDS011;51486;50.232;19.208;2022-10-13T09:11:18;16.87;;;6.77;;
64957;SDS011;51486;50.232;19.208;2022-10-13T09:13:43;20.17;;;7.60;;
64957;SDS011;51486;50.232;19.208;2022-10-13T09:16:09;14.93;;;6.53;;
64957;SDS011;51486;50.232;19.208;2022-10-13T09:18:34;14.93;;;6.20;;
64957;SDS011;51486;50.232;19.208;2022-10-13T09:21:08;12.90;;;4.87;;
64957;SDS011;51486;50.232;19.208;2022-10-13T09:23:34;12.77;;;6.47;;
64957;SDS011;51486;50.232;19.208;2022-10-13T09:25:59;20.23;;;6.67;;
64957;SDS011;51486;50.232;19.208;2022-10-13T09:28:31;17.60;;;6.60;;
64957;SDS011;51486;50.232;19.208;2022-10-13T09:31:01;12.03;;;4.90;;
64957;SDS011;51486;50.232;19.208;2022-10-13T09:33:27;10.23;;;5.10;;
64957;SDS011;51486;50.232;19.208;2022-10-13T09:38:26;10.47;;;5.30;;
64957;SDS011;51486;50.232;19.208;2022-10-13T09:45:57;13.23;;;5.10;;
64957;SDS011;51486;50.232;19.208;2022-10-13T09:48:25;7.60;;;4.40;;
64957;SDS011;51486;50.232;19.208;2022-10-13T09:50:52;11.73;;;4.20;;
64957;SDS011;51486;50.232;19.208;2022-10-13T09:58:41;6.83;;;3.37;;
64957;SDS011;51486;50.232;19.208;2022-10-13T10:01:11;7.90;;;3.93;;
64957;SDS011;51486;50.232;19.208;2022-10-13T10:03:42;10.90;;;4.57;;
64957;SDS011;51486;50.232;19.208;2022-10-13T10:06:08;10.13;;;4.70;;
64957;SDS011;51486;50.232;19.208;2022-10-13T10:11:00;6.57;;;3.43;;
64957;SDS011;51486;50.232;19.208;2022-10-13T10:13:26;9.13;;;3.77;;
64957;SDS011;51486;50.232;19.208;2022-10-13T10:26:47;5.37;;;3.00;;
64957;SDS011;51486;50.232;19.208;2022-10-13T10:29:18;7.17;;;3.63;;
64957;SDS011;51486;50.232;19.208;2022-10-13T10:34:23;6.17;;;3.30;;
64957;SDS011;51486;50.232;19.208;2022-10-13T10:39:19;6.63;;;3.17;;
64957;SDS011;51486;50.232;19.208;2022-10-13T10:44:30;6.53;;;3.63;;
64957;SDS011;51486;50.232;19.208;2022-10-13T10:47:00;8.20;;;3.23;;
64957;SDS011;51486;50.232;19.208;2022-10-13T10:49:33;10.90;;;3.80;;
64957;SDS011;51486;50.232;19.208;2022-10-13T10:52:00;15.13;;;3.40;;
64957;SDS011;51486;50.232;19.208;2022-10-13T10:54:36;10.53;;;2.70;;
64957;SDS011;51486;50.232;19.208;2022-10-13T10:57:12;7.13;;;2.97;;
64957;SDS011;51486;50.232;19.208;2022-10-13T11:04:51;4.28;;;2.10;;
64957;SDS011;51486;50.232;19.208;2022-10-13T11:17:33;4.13;;;1.77;;
64957;SDS011;51486;50.232;19.208;2022-10-13T11:20:05;8.15;;;3.03;;
64957;SDS011;51486;50.232;19.208;2022-10-13T11:25:40;9.85;;;3.03;;
64957;SDS011;51486;50.232;19.208;2022-10-13T11:30:48;3.78;;;2.15;;
64957;SDS011;51486;50.232;19.208;2022-10-13T11:33:48;3.58;;;1.95;;
64957;SDS011;51486;50.232;19.208;2022-10-13T11:36:31;5.13;;;2.67;;
64957;SDS011;51486;50.232;19.208;2022-10-13T11:41:54;3.15;;;1.55;;
64957;SDS011;51486;50.232;19.208;2022-10-13T11:52:26;4.32;;;1.83;;
64957;SDS011;51486;50.232;19.208;2022-10-13T11:55:04;2.95;;;1.65;;
64957;SDS011;51486;50.232;19.208;2022-10-13T11:57:31;2.65;;;1.75;;
64957;SDS011;51486;50.232;19.208;2022-10-13T11:59:56;16.10;;;2.20;;
64957;SDS011;51486;50.232;19.208;2022-10-13T12:02:23;4.75;;;2.28;;
64957;SDS011;51486;50.232;19.208;2022-10-13T12:07:44;4.47;;;1.70;;
64957;SDS011;51486;50.232;19.208;2022-10-13T12:10:16;4.10;;;1.73;;
64957;SDS011;51486;50.232;19.208;2022-10-13T12:12:46;2.87;;;1.77;;
64957;SDS011;51486;50.232;19.208;2022-10-13T12:17:53;3.80;;;2.10;;
64957;SDS011;51486;50.232;19.208;2022-10-13T12:20:20;6.50;;;1.80;;
64957;SDS011;51486;50.232;19.208;2022-10-13T12:22:46;4.83;;;1.80;;
64957;SDS011;51486;50.232;19.208;2022-10-13T12:25:15;5.47;;;1.77;;
64957;SDS011;51486;50.232;19.208;2022-10-13T12:27:45;2.73;;;1.87;;
64957;SDS011;51486;50.232;19.208;2022-10-13T12:30:32;2.37;;;1.70;;
64957;SDS011;51486;50.232;19.208;2022-10-13T12:33:03;2.27;;;1.63;;
64957;SDS011;51486;50.232;19.208;2022-10-13T12:35:40;2.60;;;1.90;;
64957;SDS011;51486;50.232;19.208;2022-10-13T12:38:06;3.70;;;2.00;;
64957;SDS011;51486;50.232;19.208;2022-10-13T12:40:38;4.87;;;2.43;;
64957;SDS011;51486;50.232;19.208;2022-10-13T12:43:04;6.50;;;2.37;;
64957;SDS011;51486;50.232;19.208;2022-10-13T12:45:30;4.40;;;2.10;;
64957;SDS011;51486;50.232;19.208;2022-10-13T12:47:57;7.90;;;2.50;;
64957;SDS011;51486;50.232;19.208;2022-10-13T12:52:49;3.13;;;1.57;;
64957;SDS011;51486;50.232;19.208;2022-10-13T12:55:17;3.57;;;2.10;;
64957;SDS011;51486;50.232;19.208;2022-10-13T12:57:44;5.37;;;2.07;;
64957;SDS011;51486;50.232;19.208;2022-10-13T13:00:22;19.83;;;2.43;;
64957;SDS011;51486;50.232;19.208;2022-10-13T13:02:49;7.97;;;2.13;;
64957;SDS011;51486;50.232;19.208;2022-10-13T13:05:39;6.47;;;3.57;;
64957;SDS011;51486;50.232;19.208;2022-10-13T13:08:27;4.57;;;2.40;;
64957;SDS011;51486;50.232;19.208;2022-10-13T13:11:02;7.20;;;2.77;;
64957;SDS011;51486;50.232;19.208;2022-10-13T13:13:28;5.37;;;2.57;;
64957;SDS011;51486;50.232;19.208;2022-10-13T13:16:11;4.13;;;2.00;;
64957;SDS011;51486;50.232;19.208;2022-10-13T13:18:37;9.47;;;2.77;;
64957;SDS011;51486;50.232;19.208;2022-10-13T13:21:06;4.17;;;2.40;;
64957;SDS011;51486;50.232;19.208;2022-10-13T13:23:31;9.70;;;3.20;;
64957;SDS011;51486;50.232;19.208;2022-10-13T13:25:59;9.10;;;2.53;;
64957;SDS011;51486;50.232;19.208;2022-10-13T13:28:31;3.87;;;2.57;;
64957;SDS011;51486;50.232;19.208;2022-10-13T13:30:57;10.77;;;3.70;;
64957;SDS011;51486;50.232;19.208;2022-10-13T13:33:23;7.53;;;3.50;;
64957;SDS011;51486;50.232;19.208;2022-10-13T13:35:48;9.50;;;3.80;;
64957;SDS011;51486;50.232;19.208;2022-10-13T13:38:13;5.43;;;2.83;;
64957;SDS011;51486;50.232;19.208;2022-10-13T13:40:39;7.30;;;3.57;;
64957;SDS011;51486;50.232;19.208;2022-10-13T13:43:05;14.53;;;4.43;;
64957;SDS011;51486;50.232;19.208;2022-10-13T13:45:30;4.87;;;2.77;;
64957;SDS011;51486;50.232;19.208;2022-10-13T13:47:59;5.80;;;3.27;;
64957;SDS011;51486;50.232;19.208;2022-10-13T13:50:25;9.77;;;4.03;;
64957;SDS011;51486;50.232;19.208;2022-10-13T13:52:51;6.80;;;3.73;;
64957;SDS011;51486;50.232;19.208;2022-10-13T13:55:17;5.47;;;2.93;;
64957;SDS011;51486;50.232;19.208;2022-10-13T13:57:42;5.73;;;3.17;;
64957;SDS011;51486;50.232;19.208;2022-10-13T14:00:11;6.80;;;3.47;;
64957;SDS011;51486;50.232;19.208;2022-10-13T14:02:37;8.40;;;3.87;;
64957;SDS011;51486;50.232;19.208;2022-10-13T14:05:03;9.53;;;3.97;;
64957;SDS011;51486;50.232;19.208;2022-10-13T14:07:29;3.93;;;2.77;;
64957;SDS011;51486;50.232;19.208;2022-10-13T14:09:54;18.23;;;4.63;;
64957;SDS011;51486;50.232;19.208;2022-10-13T14:12:20;5.13;;;3.33;;
64957;SDS011;51486;50.232;19.208;2022-10-13T14:14:47;13.53;;;4.00;;
64957;SDS011;51486;50.232;19.208;2022-10-13T14:17:13;10.13;;;4.63;;
64957;SDS011;51486;50.232;19.208;2022-10-13T14:19:38;6.33;;;3.77;;
64957;SDS011;51486;50.232;19.208;2022-10-13T14:22:05;13.33;;;4.50;;
64957;SDS011;51486;50.232;19.208;2022-10-13T14:24:31;10.67;;;3.60;;
64957;SDS011;51486;50.232;19.208;2022-10-13T14:26:56;10.57;;;4.53;;
64957;SDS011;51486;50.232;19.208;2022-10-13T14:29:22;15.20;;;5.27;;
64957;SDS011;51486;50.232;19.208;2022-10-13T14:31:47;7.93;;;4.60;;
64957;SDS011;51486;50.232;19.208;2022-10-13T14:34:12;8.13;;;4.37;;
64957;SDS011;51486;50.232;19.208;2022-10-13T14:36:38;15.70;;;4.07;;
64957;SDS011;51486;50.232;19.208;2022-10-13T14:39:03;17.83;;;4.90;;
64957;SDS011;51486;50.232;19.208;2022-10-13T14:41:29;15.90;;;5.90;;
64957;SDS011;51486;50.232;19.208;2022-10-13T14:43:55;12.03;;;6.20;;
64957;SDS011;51486;50.232;19.208;2022-10-13T14:46:20;15.83;;;5.67;;
64957;SDS011;51486;50.232;19.208;2022-10-13T14:48:46;8.50;;;4.70;;
64957;SDS011;51486;50.232;19.208;2022-10-13T14:51:12;8.07;;;4.33;;
64957;SDS011;51486;50.232;19.208;2022-10-13T14:53:39;13.33;;;5.03;;
64957;SDS011;51486;50.232;19.208;2022-10-13T14:56:15;13.97;;;5.63;;
64957;SDS011;51486;50.232;19.208;2022-10-13T14:58:41;17.17;;;6.10;;
64957;SDS011;51486;50.232;19.208;2022-10-13T15:01:07;24.27;;;8.63;;
64957;SDS011;51486;50.232;19.208;2022-10-13T15:03:32;19.70;;;9.67;;
64957;SDS011;51486;50.232;19.208;2022-10-13T15:05:58;24.40;;;9.90;;
64957;SDS011;51486;50.232;19.208;2022-10-13T15:08:25;46.40;;;13.20;;
64957;SDS011;51486;50.232;19.208;2022-10-13T15:11:03;39.43;;;16.80;;
64957;SDS011;51486;50.232;19.208;2022-10-13T15:13:29;41.13;;;16.43;;
64957;SDS011;51486;50.232;19.208;2022-10-13T15:15:54;33.80;;;15.60;;
64957;SDS011;51486;50.232;19.208;2022-10-13T15:18:20;28.07;;;13.70;;
64957;SDS011;51486;50.232;19.208;2022-10-13T15:20:46;40.10;;;14.10;;
64957;SDS011;51486;50.232;19.208;2022-10-13T15:23:12;60.53;;;18.67;;
64957;SDS011;51486;50.232;19.208;2022-10-13T15:25:38;37.77;;;15.50;;
64957;SDS011;51486;50.232;19.208;2022-10-13T15:28:05;107.43;;;30.90;;
64957;SDS011;51486;50.232;19.208;2022-10-13T15:30:33;152.13;;;44.10;;
64957;SDS011;51486;50.232;19.208;2022-10-13T15:32:59;165.30;;;46.87;;
64957;SDS011;51486;50.232;19.208;2022-10-13T15:35:27;121.97;;;38.20;;
64957;SDS011;51486;50.232;19.208;2022-10-13T15:37:53;61.50;;;22.90;;
64957;SDS011;51486;50.232;19.208;2022-10-13T15:40:18;82.40;;;32.67;;
64957;SDS011;51486;50.232;19.208;2022-10-13T15:42:49;176.73;;;58.10;;
64957;SDS011;51486;50.232;19.208;2022-10-13T15:45:14;176.97;;;63.37;;
64957;SDS011;51486;50.232;19.208;2022-10-13T15:47:40;168.37;;;61.87;;
64957;SDS011;51486;50.232;19.208;2022-10-13T15:50:06;137.23;;;56.50;;
64957;SDS011;51486;50.232;19.208;2022-10-13T15:52:35;118.23;;;45.97;;
64957;SDS011;51486;50.232;19.208;2022-10-13T15:55:01;110.80;;;38.97;;
64957;SDS011;51486;50.232;19.208;2022-10-13T15:57:27;123.70;;;44.50;;
64957;SDS011;51486;50.232;19.208;2022-10-13T15:59:53;136.83;;;48.17;;
64957;SDS011;51486;50.232;19.208;2022-10-13T16:02:20;150.30;;;49.70;;
64957;SDS011;51486;50.232;19.208;2022-10-13T16:04:47;183.13;;;59.23;;
64957;SDS011;51486;50.232;19.208;2022-10-13T16:07:12;128.10;;;45.23;;